createdAt,value
2022-08-28T00:00:17.245Z,4.1
2022-08-28T00:02:17.348Z,3.9
2022-08-28T00:04:17.393Z,3.2
2022-08-28T00:06:17.311Z,3.2
2022-08-28T00:08:17.240Z,3.7
2022-08-28T00:10:17.239Z,3.5
2022-08-28T00:12:17.285Z,4.8
2022-08-28T00:14:17.266Z,3.2
2022-08-28T00:16:17.351Z,2.9
2022-08-28T00:18:17.340Z,1.0
2022-08-28T00:20:17.258Z,2.5
2022-08-28T00:22:17.278Z,3.7
2022-08-28T00:24:17.287Z,3.3
2022-08-28T00:26:17.277Z,4.3
2022-08-28T00:28:23.834Z,4.4
2022-08-28T00:30:17.277Z,2.9
2022-08-28T00:32:17.275Z,3.0
2022-08-28T00:34:17.270Z,4.1
2022-08-28T00:36:17.273Z,3.9
2022-08-28T00:38:17.255Z,3.7
2022-08-28T00:40:17.338Z,4.7
2022-08-28T00:42:17.282Z,3.7
2022-08-28T00:44:17.286Z,4.0
2022-08-28T00:46:17.362Z,4.8
2022-08-28T00:48:17.272Z,4.1
2022-08-28T00:50:17.313Z,4.3
2022-08-28T00:52:17.268Z,3.8
2022-08-28T00:54:17.292Z,5.2
2022-08-28T00:56:17.258Z,3.8
2022-08-28T00:58:17.268Z,4.2
2022-08-28T01:00:17.262Z,1.8
2022-08-28T01:02:17.283Z,2.9
2022-08-28T01:04:17.292Z,2.1
2022-08-28T01:06:17.325Z,3.8
2022-08-28T01:08:17.366Z,2.6
2022-08-28T01:10:17.291Z,3.6
2022-08-28T01:12:17.304Z,3.4
2022-08-28T01:14:17.311Z,2.1
2022-08-28T01:16:17.387Z,1.5
2022-08-28T01:18:17.382Z,2.8
2022-08-28T01:20:17.329Z,1.8
2022-08-28T01:22:17.321Z,3.3
2022-08-28T01:24:17.309Z,4.1
2022-08-28T01:26:17.322Z,2.7
2022-08-28T01:28:17.320Z,2.4
2022-08-28T01:30:17.344Z,3.2
2022-08-28T01:32:17.335Z,3.7
2022-08-28T01:34:17.327Z,1.4
2022-08-28T01:36:17.580Z,2.2
2022-08-28T01:38:19.582Z,2.5
2022-08-28T01:40:17.451Z,1.6
2022-08-28T01:42:17.352Z,3.2
2022-08-28T01:44:17.929Z,3.1
2022-08-28T01:46:17.497Z,3.1
2022-08-28T01:48:17.390Z,2.0
2022-08-28T01:50:17.343Z,0.7
2022-08-28T01:52:17.396Z,2.1
2022-08-28T01:54:17.461Z,3.2
2022-08-28T01:56:17.374Z,2.0
2022-08-28T01:58:17.371Z,0.9
2022-08-28T02:00:17.318Z,3.1
2022-08-28T02:02:17.362Z,4.5
2022-08-28T02:04:17.415Z,2.8
2022-08-28T02:06:17.352Z,3.3
2022-08-28T02:08:17.364Z,4.0
2022-08-28T02:10:17.352Z,3.4
2022-08-28T02:12:17.367Z,4.8
2022-08-28T02:14:17.346Z,1.7
2022-08-28T02:16:17.408Z,2.5
2022-08-28T02:18:17.368Z,2.4
2022-08-28T02:20:17.338Z,2.9
2022-08-28T02:22:17.384Z,3.3
2022-08-28T02:24:17.379Z,3.1
2022-08-28T02:26:17.344Z,3.0
2022-08-28T02:28:17.369Z,1.9
2022-08-28T02:30:17.393Z,4.1
2022-08-28T02:32:17.351Z,7.1
2022-08-28T02:34:17.429Z,9.0
2022-08-28T02:36:17.367Z,5.1
2022-08-28T02:38:17.383Z,5.9
2022-08-28T02:40:17.473Z,9.6
2022-08-28T02:42:17.381Z,8.2
2022-08-28T02:44:17.405Z,5.2
2022-08-28T02:46:17.457Z,6.8
2022-08-28T02:48:17.739Z,4.6
2022-08-28T02:50:17.387Z,2.9
2022-08-28T02:52:17.368Z,3.3
2022-08-28T02:54:18.540Z,6.6
2022-08-28T02:56:17.411Z,9.2
2022-08-28T02:58:17.391Z,7.7
2022-08-28T03:00:17.407Z,3.4
2022-08-28T03:02:17.470Z,4.7
2022-08-28T03:04:17.403Z,3.0
2022-08-28T03:06:17.391Z,7.6
2022-08-28T03:08:17.416Z,8.1
2022-08-28T03:10:17.408Z,8.4
2022-08-28T03:12:17.431Z,5.3
2022-08-28T03:14:17.410Z,9.6
2022-08-28T03:16:17.482Z,7.1
2022-08-28T03:18:17.420Z,9.1
2022-08-28T03:20:17.462Z,5.1
2022-08-28T03:22:17.520Z,10.8
2022-08-28T03:24:17.443Z,10.1
2022-08-28T03:26:17.445Z,11.3
2022-08-28T03:28:17.459Z,4.5
2022-08-28T03:30:17.450Z,6.9
2022-08-28T03:32:17.889Z,4.7
2022-08-28T03:34:17.871Z,7.8
2022-08-28T03:36:17.803Z,8.1
2022-08-28T03:38:17.861Z,4.1
2022-08-28T03:40:17.961Z,5.6
2022-08-28T03:42:17.867Z,6.5
2022-08-28T03:44:17.897Z,5.9
2022-08-28T03:46:17.856Z,5.2
2022-08-28T03:48:17.835Z,6.8
2022-08-28T03:50:17.828Z,6.5
2022-08-28T03:52:17.847Z,4.3
2022-08-28T03:54:17.835Z,8.0
2022-08-28T03:56:17.881Z,4.4
2022-08-28T03:58:19.075Z,6.3
2022-08-28T04:00:17.757Z,7.9
2022-08-28T04:02:17.896Z,4.8
2022-08-28T04:04:17.880Z,7.1
2022-08-28T04:06:17.824Z,4.3
2022-08-28T04:08:17.881Z,5.2
2022-08-28T04:10:17.957Z,6.2
2022-08-28T04:12:17.933Z,5.7
2022-08-28T04:14:17.820Z,6.4
2022-08-28T04:16:17.946Z,3.9
2022-08-28T04:18:17.756Z,5.5
2022-08-28T04:20:17.814Z,4.3
2022-08-28T04:22:17.856Z,4.7
2022-08-28T04:24:17.812Z,3.5
2022-08-28T04:26:17.781Z,4.5
2022-08-28T04:28:17.504Z,4.5
2022-08-28T04:30:17.919Z,6.2
2022-08-28T04:32:17.543Z,5.1
2022-08-28T04:34:17.479Z,5.4
2022-08-28T04:36:17.489Z,5.1
2022-08-28T04:38:17.492Z,3.3
2022-08-28T04:40:17.568Z,4.5
2022-08-28T04:42:17.493Z,3.4
2022-08-28T04:44:17.510Z,4.1
2022-08-28T04:46:17.594Z,4.9
2022-08-28T04:48:17.878Z,3.7
2022-08-28T04:50:17.580Z,5.3
2022-08-28T04:52:17.511Z,5.0
2022-08-28T04:54:17.519Z,4.5
2022-08-28T04:56:17.501Z,8.7
2022-08-28T04:58:17.627Z,5.5
2022-08-28T05:00:17.528Z,4.5
2022-08-28T05:02:17.615Z,5.2
2022-08-28T05:04:17.505Z,6.1
2022-08-28T05:06:17.534Z,10.3
2022-08-28T05:08:17.545Z,8.4
2022-08-28T05:10:17.547Z,7.4
2022-08-28T05:12:17.546Z,7.9
2022-08-28T05:14:17.537Z,6.8
2022-08-28T05:16:17.764Z,9.1
2022-08-28T05:18:17.557Z,6.6
2022-08-28T05:20:17.547Z,7.7
2022-08-28T05:22:17.535Z,7.6
2022-08-28T05:24:17.551Z,7.8
2022-08-28T05:26:17.565Z,10.1
2022-08-28T05:28:17.541Z,8.8
2022-08-28T05:30:17.581Z,8.3
2022-08-28T05:32:17.563Z,9.2
2022-08-28T05:34:17.566Z,5.8
2022-08-28T05:36:17.575Z,8.7
2022-08-28T05:38:17.564Z,5.9
2022-08-28T05:40:17.593Z,6.3
2022-08-28T05:42:17.644Z,7.6
2022-08-28T05:44:17.587Z,8.5
2022-08-28T05:46:17.668Z,4.4
2022-08-28T05:48:17.657Z,4.4
2022-08-28T05:50:17.667Z,6.6
2022-08-28T05:52:17.582Z,7.1
2022-08-28T05:54:17.585Z,5.9
2022-08-28T05:56:17.597Z,5.4
2022-08-28T05:58:17.597Z,4.6
2022-08-28T06:00:17.597Z,3.5
2022-08-28T06:02:17.683Z,4.3
2022-08-28T06:04:17.836Z,5.0
2022-08-28T06:06:17.657Z,4.9
2022-08-28T06:08:17.603Z,2.1
2022-08-28T06:10:17.584Z,3.6
2022-08-28T06:12:17.567Z,5.2
2022-08-28T06:14:18.085Z,4.9
2022-08-28T06:16:17.661Z,6.2
2022-08-28T06:18:17.615Z,5.6
2022-08-28T06:20:17.665Z,4.5
2022-08-28T06:22:17.596Z,8.2
2022-08-28T06:24:17.600Z,6.3
2022-08-28T06:26:17.627Z,5.6
2022-08-28T06:28:17.600Z,4.1
2022-08-28T06:30:17.628Z,6.8
2022-08-28T06:32:17.666Z,5.5
2022-08-28T06:34:17.673Z,6.1
2022-08-28T06:36:17.575Z,5.3
2022-08-28T06:38:17.693Z,5.6
2022-08-28T06:40:17.623Z,7.1
2022-08-28T06:42:17.599Z,7.7
2022-08-28T06:44:17.624Z,5.8
2022-08-28T06:46:17.681Z,4.6
2022-08-28T06:48:17.615Z,7.8
2022-08-28T06:50:17.695Z,4.1
2022-08-28T06:52:17.670Z,4.5
2022-08-28T06:54:22.324Z,6.1
2022-08-28T06:56:26.038Z,5.3
2022-08-28T06:58:17.906Z,3.6
2022-08-28T07:00:18.466Z,5.5
2022-08-28T07:02:17.730Z,4.8
2022-08-28T07:04:17.605Z,4.4
2022-08-28T07:06:17.755Z,5.9
2022-08-28T07:08:17.726Z,8.8
2022-08-28T07:10:17.880Z,7.1
2022-08-28T07:12:17.953Z,10.0
2022-08-28T07:14:18.610Z,7.8
2022-08-28T07:16:18.043Z,9.9
2022-08-28T07:18:17.978Z,7.6
2022-08-28T07:20:18.068Z,7.4
2022-08-28T07:22:17.767Z,6.5
2022-08-28T07:24:17.659Z,8.4
2022-08-28T07:26:17.641Z,7.5
2022-08-28T07:28:17.701Z,3.7
2022-08-28T07:30:17.674Z,9.1
2022-08-28T07:32:17.657Z,8.7
2022-08-28T07:34:17.685Z,7.6
2022-08-28T07:36:29.364Z,5.3
2022-08-28T07:38:17.642Z,5.4
2022-08-28T07:40:17.718Z,5.8
2022-08-28T07:42:17.692Z,5.6
2022-08-28T07:44:17.664Z,6.3
2022-08-28T07:46:17.682Z,8.5
2022-08-28T07:48:18.142Z,7.1
2022-08-28T07:50:17.730Z,6.5
2022-08-28T07:52:17.679Z,5.2
2022-08-28T07:54:18.203Z,4.9
2022-08-28T07:56:17.688Z,5.8
2022-08-28T07:58:17.762Z,7.4
2022-08-28T08:00:17.749Z,5.8
2022-08-28T08:02:17.687Z,7.5
2022-08-28T08:04:17.746Z,6.6
2022-08-28T08:06:18.932Z,5.7
2022-08-28T08:08:18.199Z,5.5
2022-08-28T08:10:20.017Z,5.0
2022-08-28T08:12:17.724Z,5.6
2022-08-28T08:14:17.808Z,4.3
2022-08-28T08:16:17.757Z,6.0
2022-08-28T08:18:17.731Z,4.1
2022-08-28T08:20:17.777Z,4.4
2022-08-28T08:22:17.726Z,8.9
2022-08-28T08:24:20.028Z,4.5
2022-08-28T08:26:17.735Z,2.5
2022-08-28T08:28:18.090Z,5.7
2022-08-28T08:30:17.774Z,6.0
2022-08-28T08:32:17.826Z,5.9
2022-08-28T08:34:17.704Z,6.8
2022-08-28T08:36:17.913Z,5.8
2022-08-28T08:38:17.754Z,5.3
2022-08-28T08:40:17.784Z,6.8
2022-08-28T08:42:17.740Z,5.6
2022-08-28T08:44:17.843Z,7.7
2022-08-28T08:46:17.796Z,4.6
2022-08-28T08:48:17.746Z,2.8
2022-08-28T08:50:17.795Z,3.7
2022-08-28T08:52:17.810Z,5.9
2022-08-28T08:54:17.795Z,4.2
2022-08-28T08:56:17.737Z,3.9
2022-08-28T08:58:17.731Z,3.4
2022-08-28T09:00:17.749Z,5.7
2022-08-28T09:02:17.759Z,6.0
2022-08-28T09:04:21.648Z,3.5
2022-08-28T09:06:17.753Z,5.4
2022-08-28T09:08:17.840Z,5.5
2022-08-28T09:10:17.752Z,5.5
2022-08-28T09:12:18.053Z,4.1
2022-08-28T09:14:17.748Z,2.9
2022-08-28T09:16:17.830Z,3.8
2022-08-28T09:18:17.789Z,3.0
2022-08-28T09:20:17.793Z,4.1
2022-08-28T09:22:17.787Z,5.2
2022-08-28T09:24:17.836Z,5.3
2022-08-28T09:26:17.780Z,4.4
2022-08-28T09:28:17.777Z,7.6
2022-08-28T09:30:17.789Z,7.1
2022-08-28T09:32:17.761Z,6.6
2022-08-28T09:34:17.775Z,4.6
2022-08-28T09:36:17.808Z,5.6
2022-08-28T09:38:17.778Z,6.2
2022-08-28T09:40:17.828Z,7.3
2022-08-28T09:42:17.765Z,4.5
2022-08-28T09:44:17.817Z,5.5
2022-08-28T09:46:17.801Z,5.1
2022-08-28T09:48:17.809Z,5.5
2022-08-28T09:50:17.818Z,4.4
2022-08-28T09:52:20.767Z,4.4
2022-08-28T09:54:17.817Z,5.4
2022-08-28T09:56:17.801Z,5.5
2022-08-28T09:58:18.048Z,4.7
2022-08-28T10:00:17.791Z,5.8
2022-08-28T10:02:17.808Z,5.6
2022-08-28T10:04:18.193Z,4.4
2022-08-28T10:06:17.834Z,4.4
2022-08-28T10:08:17.907Z,5.0
2022-08-28T10:10:18.148Z,5.0
2022-08-28T10:12:17.836Z,6.3
2022-08-28T10:14:18.142Z,5.8
2022-08-28T10:16:18.166Z,4.1
2022-08-28T10:18:17.990Z,4.6
2022-08-28T10:20:18.006Z,5.0
2022-08-28T10:22:17.885Z,7.6
2022-08-28T10:24:23.347Z,8.4
2022-08-28T10:26:18.088Z,8.1
2022-08-28T10:28:17.865Z,7.9
2022-08-28T10:30:18.189Z,5.0
2022-08-28T10:32:18.139Z,6.4
2022-08-28T10:34:17.851Z,7.9
2022-08-28T10:36:28.726Z,7.1
2022-08-28T10:38:17.855Z,10.1
2022-08-28T10:40:18.033Z,8.9
2022-08-28T10:42:17.946Z,10.7
2022-08-28T10:44:17.849Z,8.1
2022-08-28T10:46:17.933Z,8.3
2022-08-28T10:48:17.857Z,5.9
2022-08-28T10:50:17.843Z,7.5
2022-08-28T10:52:17.864Z,6.2
2022-08-28T10:54:17.873Z,5.0
2022-08-28T10:56:17.899Z,7.3
2022-08-28T10:58:24.098Z,5.9
2022-08-28T11:00:17.857Z,7.2
2022-08-28T11:02:17.888Z,5.4
2022-08-28T11:04:24.857Z,6.9
2022-08-28T11:06:17.882Z,12.2
2022-08-28T11:08:17.912Z,7.4
2022-08-28T11:10:17.854Z,7.9
2022-08-28T11:12:17.869Z,7.4
2022-08-28T11:14:17.924Z,7.6
2022-08-28T11:16:17.953Z,5.3
2022-08-28T11:18:17.953Z,9.7
2022-08-28T11:20:17.876Z,6.6
2022-08-28T11:22:17.902Z,6.2
2022-08-28T11:24:17.898Z,5.8
2022-08-28T11:26:17.895Z,8.6
2022-08-28T11:28:17.950Z,11.3
2022-08-28T11:30:17.901Z,6.3
2022-08-28T11:32:18.311Z,8.7
2022-08-28T11:34:17.923Z,7.8
2022-08-28T11:36:17.917Z,7.9
2022-08-28T11:38:20.075Z,6.4
2022-08-28T11:40:17.955Z,5.9
2022-08-28T11:42:17.921Z,9.8
2022-08-28T11:44:17.892Z,7.7
2022-08-28T11:46:21.006Z,4.2
2022-08-28T11:48:17.886Z,7.0
2022-08-28T11:50:17.935Z,10.8
2022-08-28T11:52:17.933Z,8.6
2022-08-28T11:54:17.931Z,7.4
2022-08-28T11:56:21.965Z,9.1
2022-08-28T11:58:17.940Z,8.7
2022-08-28T12:00:17.995Z,7.4
2022-08-28T12:02:18.155Z,5.1
2022-08-28T12:04:18.036Z,6.3
2022-08-28T12:06:17.941Z,4.6
2022-08-28T12:08:17.920Z,10.2
2022-08-28T12:10:17.978Z,7.5
2022-08-28T12:12:17.990Z,7.7
2022-08-28T12:14:17.935Z,8.4
2022-08-28T12:16:18.035Z,10.1
2022-08-28T12:18:17.963Z,7.0
2022-08-28T12:20:18.086Z,5.9
2022-08-28T12:22:17.943Z,4.2
2022-08-28T12:24:18.129Z,9.5
2022-08-28T12:26:17.951Z,8.2
2022-08-28T12:28:19.391Z,5.8
2022-08-28T12:30:18.030Z,6.6
2022-08-28T12:32:18.154Z,6.0
2022-08-28T12:34:17.976Z,8.1
2022-08-28T12:36:17.973Z,4.2
2022-08-28T12:38:17.966Z,6.1
2022-08-28T12:40:19.947Z,7.9
2022-08-28T12:42:18.287Z,8.5
2022-08-28T12:44:18.798Z,4.7
2022-08-28T12:46:19.402Z,7.1
2022-08-28T12:48:18.059Z,6.4
2022-08-28T12:50:18.141Z,6.4
2022-08-28T12:52:18.316Z,5.5
2022-08-28T12:54:17.996Z,4.9
2022-08-28T12:56:17.995Z,6.7
2022-08-28T12:58:17.991Z,3.9
2022-08-28T13:00:18.018Z,7.0
2022-08-28T13:02:18.195Z,7.8
2022-08-28T13:04:18.034Z,8.3
2022-08-28T13:06:18.101Z,9.5
2022-08-28T13:08:18.030Z,5.6
2022-08-28T13:10:18.169Z,7.4
2022-08-28T13:12:18.081Z,4.7
2022-08-28T13:14:18.258Z,5.6
2022-08-28T13:16:18.256Z,9.4
2022-08-28T13:18:18.039Z,8.6
2022-08-28T13:20:18.049Z,11.0
2022-08-28T13:22:18.031Z,6.2
2022-08-28T13:24:18.102Z,4.6
2022-08-28T13:26:18.116Z,6.9
2022-08-28T13:28:18.050Z,6.0
2022-08-28T13:30:18.049Z,6.3
2022-08-28T13:32:18.035Z,6.7
2022-08-28T13:34:18.332Z,5.7
2022-08-28T13:36:18.070Z,7.7
2022-08-28T13:38:18.051Z,7.4
2022-08-28T13:40:44.448Z,7.0
2022-08-28T13:42:18.320Z,5.3
2022-08-28T13:44:19.075Z,10.4
2022-08-28T13:46:18.143Z,6.3
2022-08-28T13:48:18.271Z,5.3
2022-08-28T13:50:23.136Z,5.3
2022-08-28T13:52:18.183Z,8.5
2022-08-28T13:54:18.311Z,9.6
2022-08-28T13:56:18.167Z,5.0
2022-08-28T13:58:18.101Z,5.7
2022-08-28T14:00:18.101Z,6.5
2022-08-28T14:02:18.173Z,7.6
2022-08-28T14:04:18.453Z,4.5
2022-08-28T14:06:18.051Z,5.7
2022-08-28T14:08:18.089Z,6.3
2022-08-28T14:10:18.105Z,4.4
2022-08-28T14:12:18.067Z,6.1
2022-08-28T14:14:18.045Z,6.9
2022-08-28T14:16:18.214Z,5.7
2022-08-28T14:18:18.061Z,7.4
2022-08-28T14:20:19.064Z,4.5
2022-08-28T14:22:18.115Z,5.9
2022-08-28T14:24:18.297Z,6.1
2022-08-28T14:26:18.481Z,6.8
2022-08-28T14:28:18.122Z,6.5
2022-08-28T14:30:18.155Z,6.3
2022-08-28T14:32:18.154Z,7.9
2022-08-28T14:34:18.099Z,7.6
2022-08-28T14:36:18.083Z,6.9
2022-08-28T14:38:18.101Z,10.1
2022-08-28T14:40:18.184Z,5.1
2022-08-28T14:42:18.089Z,4.6
2022-08-28T14:44:18.129Z,5.9
2022-08-28T14:46:18.116Z,7.5
2022-08-28T14:48:18.116Z,6.4
2022-08-28T14:50:23.089Z,6.6
2022-08-28T14:52:18.106Z,5.3
2022-08-28T14:54:18.159Z,3.5
2022-08-28T14:56:18.109Z,6.0
2022-08-28T14:58:18.124Z,4.4
2022-08-28T15:00:18.098Z,5.1
2022-08-28T15:02:18.128Z,7.1
2022-08-28T15:04:18.155Z,5.6
2022-08-28T15:06:18.115Z,6.9
2022-08-28T15:08:18.102Z,9.9
2022-08-28T15:10:18.228Z,6.5
2022-08-28T15:12:18.118Z,6.1
2022-08-28T15:14:18.129Z,7.7
2022-08-28T15:16:18.138Z,5.6
2022-08-28T15:18:18.178Z,6.6
2022-08-28T15:20:18.188Z,7.5
2022-08-28T15:22:27.161Z,4.2
2022-08-28T15:24:18.151Z,4.0
2022-08-28T15:26:18.140Z,7.6
2022-08-28T15:28:18.138Z,5.9
2022-08-28T15:30:18.154Z,4.8
2022-08-28T15:32:18.417Z,7.4
2022-08-28T15:34:18.504Z,5.5
2022-08-28T15:36:18.607Z,3.2
2022-08-28T15:38:18.521Z,3.2
2022-08-28T15:40:18.242Z,3.9
2022-08-28T15:42:18.108Z,3.7
2022-08-28T15:44:18.141Z,6.4
2022-08-28T15:46:18.127Z,5.5
2022-08-28T15:48:18.156Z,6.0
2022-08-28T15:50:20.024Z,3.2
2022-08-28T15:52:18.204Z,4.4
2022-08-28T15:54:18.159Z,4.2
2022-08-28T15:56:18.157Z,7.7
2022-08-28T15:58:18.164Z,5.4
2022-08-28T16:00:18.179Z,5.1
2022-08-28T16:02:18.194Z,7.3
2022-08-28T16:04:18.133Z,5.4
2022-08-28T16:06:18.170Z,4.9
2022-08-28T16:08:18.406Z,5.1
2022-08-28T16:10:18.209Z,6.4
2022-08-28T16:12:18.201Z,5.2
2022-08-28T16:14:21.021Z,2.4
2022-08-28T16:16:18.257Z,1.7
2022-08-28T16:18:18.215Z,3.3
2022-08-28T16:20:18.288Z,3.2
2022-08-28T16:22:18.168Z,6.8
2022-08-28T16:24:18.228Z,6.8
2022-08-28T16:26:18.185Z,8.5
2022-08-28T16:28:18.299Z,6.3
2022-08-28T16:30:18.251Z,9.4
2022-08-28T16:32:18.196Z,8.5
2022-08-28T16:34:19.420Z,7.7
2022-08-28T16:36:18.207Z,4.3
2022-08-28T16:38:18.186Z,5.0
2022-08-28T16:40:18.272Z,6.0
2022-08-28T16:42:18.212Z,1.9
2022-08-28T16:44:18.224Z,2.6
2022-08-28T16:46:18.254Z,0.4
2022-08-28T16:48:18.280Z,2.6
2022-08-28T16:50:18.218Z,3.0
2022-08-28T16:52:18.230Z,1.8
2022-08-28T16:54:18.303Z,4.3
2022-08-28T16:56:18.205Z,8.4
2022-08-28T16:58:18.645Z,3.4
2022-08-28T17:00:18.263Z,2.4
2022-08-28T17:02:18.647Z,1.9
2022-08-28T17:04:18.426Z,1.2
2022-08-28T17:06:18.221Z,3.0
2022-08-28T17:08:18.228Z,4.4
2022-08-28T17:10:18.247Z,4.2
2022-08-28T17:12:18.245Z,4.7
2022-08-28T17:14:18.277Z,2.0
2022-08-28T17:16:18.366Z,1.8
2022-08-28T17:18:18.267Z,1.1
2022-08-28T17:20:18.298Z,2.0
2022-08-28T17:22:18.255Z,2.5
2022-08-28T17:24:18.259Z,0.7
2022-08-28T17:26:18.263Z,0.2
2022-08-28T17:28:18.365Z,0.1
2022-08-28T17:30:18.278Z,0.8
2022-08-28T17:32:18.287Z,0.6
2022-08-28T17:34:20.528Z,0.0
2022-08-28T17:36:32.730Z,0.0
2022-08-28T17:38:18.273Z,0.0
2022-08-28T17:40:18.409Z,0.0
2022-08-28T17:42:23.667Z,0.0
2022-08-28T17:44:18.292Z,0.0
2022-08-28T17:46:18.341Z,0.0
2022-08-28T17:48:19.350Z,0.0
2022-08-28T17:50:18.286Z,0.0
2022-08-28T17:52:18.273Z,0.0
2022-08-28T17:54:18.420Z,0.0
2022-08-28T17:56:18.308Z,0.0
2022-08-28T17:58:18.340Z,0.0
2022-08-28T18:00:18.928Z,0.0
2022-08-28T18:02:18.403Z,0.0
2022-08-28T18:04:23.250Z,0.0
2022-08-28T18:06:18.336Z,0.0
2022-08-28T18:08:18.285Z,0.0
2022-08-28T18:10:18.299Z,0.0
2022-08-28T18:12:18.277Z,0.0
2022-08-28T18:14:18.297Z,0.0
2022-08-28T18:16:18.434Z,0.0
2022-08-28T18:18:18.332Z,0.0
2022-08-28T18:20:18.430Z,0.0
2022-08-28T18:22:18.287Z,0.0
2022-08-28T18:24:18.323Z,0.0
2022-08-28T18:26:18.313Z,0.0
2022-08-28T18:28:22.362Z,0.0
2022-08-28T18:30:18.306Z,0.0
2022-08-28T18:32:18.308Z,0.0
2022-08-28T18:34:18.396Z,0.0
2022-08-28T18:36:18.388Z,0.0
2022-08-28T18:38:19.085Z,0.0
2022-08-28T18:40:18.411Z,0.0
2022-08-28T18:42:18.430Z,0.0
2022-08-28T18:44:21.239Z,0.0
2022-08-28T18:46:18.409Z,0.0
2022-08-28T18:48:18.503Z,0.0
2022-08-28T18:50:18.331Z,0.0
2022-08-28T18:52:18.349Z,0.0
2022-08-28T18:54:18.439Z,0.0
2022-08-28T18:56:18.340Z,0.0
2022-08-28T18:58:18.337Z,0.0
2022-08-28T19:00:18.378Z,0.0
2022-08-28T19:02:18.623Z,0.0
2022-08-28T19:04:18.344Z,0.0
2022-08-28T19:06:18.343Z,0.0
2022-08-28T19:08:18.493Z,0.0
2022-08-28T19:10:32.760Z,0.0
2022-08-28T19:12:18.385Z,0.0
2022-08-28T19:14:18.510Z,0.1
2022-08-28T19:16:18.669Z,0.0
2022-08-28T19:18:23.348Z,0.0
2022-08-28T19:20:18.479Z,0.1
2022-08-28T19:22:18.342Z,0.0
2022-08-28T19:24:18.367Z,0.0
2022-08-28T19:26:18.381Z,0.0
2022-08-28T19:28:18.575Z,0.0
2022-08-28T19:30:18.374Z,0.0
2022-08-28T19:32:18.630Z,0.3
2022-08-28T19:34:18.363Z,0.5
2022-08-28T19:36:18.432Z,0.9
2022-08-28T19:38:18.794Z,0.6
2022-08-28T19:40:18.555Z,0.6
2022-08-28T19:42:18.392Z,0.0
2022-08-28T19:44:18.729Z,1.0
2022-08-28T19:46:19.946Z,0.8
2022-08-28T19:48:18.376Z,0.7
2022-08-28T19:50:18.686Z,0.8
2022-08-28T19:52:18.398Z,1.4
2022-08-28T19:54:18.421Z,0.0
2022-08-28T19:56:18.404Z,0.0
2022-08-28T19:58:18.423Z,0.8
2022-08-28T20:00:18.531Z,0.1
2022-08-28T20:02:23.539Z,0.0
2022-08-28T20:04:18.516Z,0.0
2022-08-28T20:06:18.519Z,0.0
2022-08-28T20:08:18.603Z,0.0
2022-08-28T20:10:19.759Z,0.0
2022-08-28T20:12:19.492Z,0.0
2022-08-28T20:14:18.537Z,0.0
2022-08-28T20:16:18.896Z,0.0
2022-08-28T20:18:18.721Z,0.0
2022-08-28T20:20:18.423Z,0.0
2022-08-28T20:22:18.654Z,0.0
2022-08-28T20:24:18.424Z,0.0
2022-08-28T20:26:18.464Z,0.0
2022-08-28T20:28:18.394Z,0.0
2022-08-28T20:30:19.087Z,0.0
2022-08-28T20:32:18.381Z,0.0
2022-08-28T20:34:18.417Z,0.0
2022-08-28T20:36:21.302Z,0.0
2022-08-28T20:38:18.402Z,1.2
2022-08-28T20:40:18.474Z,0.2
2022-08-28T20:42:18.437Z,0.3
2022-08-28T20:44:23.404Z,0.1
2022-08-28T20:46:18.509Z,0.0
2022-08-28T20:48:18.464Z,0.8
2022-08-28T20:50:18.411Z,1.7
2022-08-28T20:52:18.484Z,0.4
2022-08-28T20:54:18.458Z,0.1
2022-08-28T20:56:18.437Z,0.9
2022-08-28T20:58:18.431Z,1.4
2022-08-28T21:00:18.463Z,0.8
2022-08-28T21:02:18.559Z,0.7
2022-08-28T21:04:18.626Z,1.2
2022-08-28T21:06:18.503Z,1.3
2022-08-28T21:08:18.484Z,0.0
2022-08-28T21:10:18.486Z,0.2
2022-08-28T21:12:18.598Z,0.5
2022-08-28T21:14:18.584Z,0.9
2022-08-28T21:16:18.615Z,0.3
2022-08-28T21:18:18.528Z,0.7
2022-08-28T21:20:18.523Z,0.2
2022-08-28T21:22:18.525Z,0.2
2022-08-28T21:24:18.512Z,0.2
2022-08-28T21:26:18.539Z,0.1
2022-08-28T21:28:18.476Z,1.0
2022-08-28T21:30:18.479Z,0.2
2022-08-28T21:32:18.516Z,0.0
2022-08-28T21:34:18.605Z,0.0
2022-08-28T21:36:18.532Z,0.0
2022-08-28T21:38:18.654Z,0.0
2022-08-28T21:40:18.773Z,0.0
2022-08-28T21:42:18.543Z,0.0
2022-08-28T21:44:18.680Z,0.0
2022-08-28T21:46:18.786Z,0.0
2022-08-28T21:48:18.660Z,0.0
2022-08-28T21:50:18.637Z,0.0
2022-08-28T21:52:18.588Z,0.0
2022-08-28T21:54:18.658Z,0.0
2022-08-28T21:56:18.555Z,0.0
2022-08-28T21:58:18.573Z,0.0
2022-08-28T22:00:18.559Z,0.0
2022-08-28T22:02:18.544Z,0.0
2022-08-28T22:04:18.490Z,0.0
2022-08-28T22:06:18.512Z,0.0
2022-08-28T22:08:18.498Z,0.0
2022-08-28T22:10:18.496Z,0.0
2022-08-28T22:12:18.531Z,0.0
2022-08-28T22:14:18.516Z,0.0
2022-08-28T22:16:19.114Z,0.0
2022-08-28T22:18:18.865Z,0.1
2022-08-28T22:20:18.772Z,0.5
2022-08-28T22:22:18.556Z,0.0
2022-08-28T22:24:18.543Z,0.0
2022-08-28T22:26:18.516Z,0.0
2022-08-28T22:28:18.536Z,0.0
2022-08-28T22:30:18.545Z,0.0
2022-08-28T22:32:18.640Z,0.0
2022-08-28T22:34:18.542Z,0.0
2022-08-28T22:36:18.532Z,0.0
2022-08-28T22:38:18.552Z,0.0
2022-08-28T22:40:18.588Z,0.0
2022-08-28T22:42:18.571Z,0.0
2022-08-28T22:44:18.570Z,0.0
2022-08-28T22:46:18.758Z,0.0
2022-08-28T22:48:18.574Z,0.4
2022-08-28T22:50:18.557Z,0.0
2022-08-28T22:52:18.575Z,0.0
2022-08-28T22:54:18.679Z,0.0
2022-08-28T22:56:18.555Z,0.0
2022-08-28T22:58:18.603Z,0.0
2022-08-28T23:00:18.576Z,0.0
2022-08-28T23:02:18.583Z,0.0
2022-08-28T23:04:18.687Z,0.0
2022-08-28T23:06:18.582Z,0.0
2022-08-28T23:08:18.798Z,0.0
2022-08-28T23:10:18.564Z,0.0
2022-08-28T23:12:18.578Z,0.0
2022-08-28T23:14:18.650Z,0.0
2022-08-28T23:16:18.681Z,0.0
2022-08-28T23:18:18.582Z,0.0
2022-08-28T23:20:18.583Z,0.0
2022-08-28T23:22:18.582Z,0.0
2022-08-28T23:24:18.586Z,0.0
2022-08-28T23:26:18.579Z,0.0
2022-08-28T23:28:18.801Z,0.0
2022-08-28T23:30:18.568Z,0.0
2022-08-28T23:32:18.704Z,0.0
2022-08-28T23:34:18.651Z,0.0
2022-08-28T23:36:18.614Z,0.0
2022-08-28T23:38:18.610Z,0.0
2022-08-28T23:40:18.668Z,0.0
2022-08-28T23:42:18.628Z,0.0
2022-08-28T23:44:18.614Z,0.0
2022-08-28T23:46:18.735Z,0.0
2022-08-28T23:48:18.755Z,0.0
2022-08-28T23:50:16.241Z,0.0
2022-08-28T23:52:16.249Z,0.0
2022-08-28T23:54:16.117Z,0.0
2022-08-28T23:56:16.107Z,0.0
2022-08-28T23:58:16.131Z,0.0
